sensor_id;sensor_type;location;lat;lon;timestamp;temperature;humidity
55828;DHT22;41758;51.992;5.890;2024-01-11T00:02:24;1.60;56.00
55828;DHT22;41758;51.992;5.890;2024-01-11T00:04:50;1.60;56.00
55828;DHT22;41758;51.992;5.890;2024-01-11T00:07:15;1.60;56.00
55828;DHT22;41758;51.992;5.890;2024-01-11T00:09:42;1.50;56.00
55828;DHT22;41758;51.992;5.890;2024-01-11T00:12:08;1.60;56.00
55828;DHT22;41758;51.992;5.890;2024-01-11T00:14:35;1.50;56.10
55828;DHT22;41758;51.992;5.890;2024-01-11T00:17:01;1.50;56.10
55828;DHT22;41758;51.992;5.890;2024-01-11T00:19:27;1.50;56.00
55828;DHT22;41758;51.992;5.890;2024-01-11T00:21:52;1.40;56.10
55828;DHT22;41758;51.992;5.890;2024-01-11T00:24:18;1.40;56.10
55828;DHT22;41758;51.992;5.890;2024-01-11T00:26:44;1.40;56.10
55828;DHT22;41758;51.992;5.890;2024-01-11T00:29:09;1.40;56.10
55828;DHT22;41758;51.992;5.890;2024-01-11T00:31:35;1.40;56.00
55828;DHT22;41758;51.992;5.890;2024-01-11T00:34:01;1.40;56.10
55828;DHT22;41758;51.992;5.890;2024-01-11T00:36:27;1.30;56.10
55828;DHT22;41758;51.992;5.890;2024-01-11T00:38:54;1.30;56.10
55828;DHT22;41758;51.992;5.890;2024-01-11T00:41:19;1.30;56.00
55828;DHT22;41758;51.992;5.890;2024-01-11T00:43:45;1.30;55.90
55828;DHT22;41758;51.992;5.890;2024-01-11T00:46:11;1.30;56.00
55828;DHT22;41758;51.992;5.890;2024-01-11T00:48:37;1.30;56.00
55828;DHT22;41758;51.992;5.890;2024-01-11T00:51:05;1.30;56.00
55828;DHT22;41758;51.992;5.890;2024-01-11T00:53:31;1.20;56.00
55828;DHT22;41758;51.992;5.890;2024-01-11T00:55:58;1.20;55.90
55828;DHT22;41758;51.992;5.890;2024-01-11T00:58:23;1.20;55.90
55828;DHT22;41758;51.992;5.890;2024-01-11T01:00:49;1.20;56.00
55828;DHT22;41758;51.992;5.890;2024-01-11T01:03:15;1.20;56.00
55828;DHT22;41758;51.992;5.890;2024-01-11T01:05:42;1.10;56.00
55828;DHT22;41758;51.992;5.890;2024-01-11T01:08:07;1.20;56.00
55828;DHT22;41758;51.992;5.890;2024-01-11T01:10:33;1.10;56.00
55828;DHT22;41758;51.992;5.890;2024-01-11T01:12:58;1.10;56.00
55828;DHT22;41758;51.992;5.890;2024-01-11T01:15:24;1.00;56.00
55828;DHT22;41758;51.992;5.890;2024-01-11T01:17:50;1.00;56.00
55828;DHT22;41758;51.992;5.890;2024-01-11T01:20:15;1.00;56.00
55828;DHT22;41758;51.992;5.890;2024-01-11T01:22:41;1.00;56.10
55828;DHT22;41758;51.992;5.890;2024-01-11T01:25:07;1.00;56.00
55828;DHT22;41758;51.992;5.890;2024-01-11T01:27:33;0.90;56.00
55828;DHT22;41758;51.992;5.890;2024-01-11T01:29:58;0.90;56.10
55828;DHT22;41758;51.992;5.890;2024-01-11T01:32:24;0.90;56.10
55828;DHT22;41758;51.992;5.890;2024-01-11T01:34:50;0.90;56.10
55828;DHT22;41758;51.992;5.890;2024-01-11T01:37:15;0.80;56.10
55828;DHT22;41758;51.992;5.890;2024-01-11T01:39:41;0.80;56.10
55828;DHT22;41758;51.992;5.890;2024-01-11T01:42:07;0.80;56.20
55828;DHT22;41758;51.992;5.890;2024-01-11T01:44:33;0.80;56.20
55828;DHT22;41758;51.992;5.890;2024-01-11T01:47:00;0.80;56.10
55828;DHT22;41758;51.992;5.890;2024-01-11T01:49:27;0.80;56.10
55828;DHT22;41758;51.992;5.890;2024-01-11T01:51:53;0.80;56.20
55828;DHT22;41758;51.992;5.890;2024-01-11T01:54:21;0.70;56.20
55828;DHT22;41758;51.992;5.890;2024-01-11T01:56:48;0.70;56.20
55828;DHT22;41758;51.992;5.890;2024-01-11T01:59:15;0.70;56.20
55828;DHT22;41758;51.992;5.890;2024-01-11T02:01:41;0.70;56.20
55828;DHT22;41758;51.992;5.890;2024-01-11T02:04:07;0.60;56.20
55828;DHT22;41758;51.992;5.890;2024-01-11T02:06:33;0.60;56.10
55828;DHT22;41758;51.992;5.890;2024-01-11T02:09:01;0.60;56.10
55828;DHT22;41758;51.992;5.890;2024-01-11T02:11:29;0.60;56.10
55828;DHT22;41758;51.992;5.890;2024-01-11T02:13:55;0.60;56.10
55828;DHT22;41758;51.992;5.890;2024-01-11T02:16:23;0.60;56.10
55828;DHT22;41758;51.992;5.890;2024-01-11T02:18:49;0.50;56.00
55828;DHT22;41758;51.992;5.890;2024-01-11T02:21:15;0.50;56.00
55828;DHT22;41758;51.992;5.890;2024-01-11T02:24:20;0.50;55.90
55828;DHT22;41758;51.992;5.890;2024-01-11T02:27:01;0.50;56.00
55828;DHT22;41758;51.992;5.890;2024-01-11T02:29:28;0.40;56.00
55828;DHT22;41758;51.992;5.890;2024-01-11T02:31:54;0.40;56.00
55828;DHT22;41758;51.992;5.890;2024-01-11T02:34:21;0.30;55.90
55828;DHT22;41758;51.992;5.890;2024-01-11T02:36:47;0.30;55.90
55828;DHT22;41758;51.992;5.890;2024-01-11T02:39:16;0.30;56.00
55828;DHT22;41758;51.992;5.890;2024-01-11T02:41:44;0.30;56.00
55828;DHT22;41758;51.992;5.890;2024-01-11T02:44:10;0.30;56.00
55828;DHT22;41758;51.992;5.890;2024-01-11T02:46:35;0.30;56.10
55828;DHT22;41758;51.992;5.890;2024-01-11T02:49:01;0.30;56.10
55828;DHT22;41758;51.992;5.890;2024-01-11T02:51:26;0.30;56.20
55828;DHT22;41758;51.992;5.890;2024-01-11T02:53:52;0.30;56.20
55828;DHT22;41758;51.992;5.890;2024-01-11T02:56:18;0.30;56.20
55828;DHT22;41758;51.992;5.890;2024-01-11T02:58:43;0.30;56.20
55828;DHT22;41758;51.992;5.890;2024-01-11T03:01:09;0.30;56.20
55828;DHT22;41758;51.992;5.890;2024-01-11T03:03:35;0.30;56.30
55828;DHT22;41758;51.992;5.890;2024-01-11T03:06:01;0.30;56.20
55828;DHT22;41758;51.992;5.890;2024-01-11T03:08:26;0.30;56.30
55828;DHT22;41758;51.992;5.890;2024-01-11T03:10:52;0.30;56.30
55828;DHT22;41758;51.992;5.890;2024-01-11T03:13:18;0.30;56.30
55828;DHT22;41758;51.992;5.890;2024-01-11T03:15:43;0.30;56.30
55828;DHT22;41758;51.992;5.890;2024-01-11T03:18:09;0.30;56.30
55828;DHT22;41758;51.992;5.890;2024-01-11T03:20:35;0.20;56.30
55828;DHT22;41758;51.992;5.890;2024-01-11T03:23:01;0.20;56.30
55828;DHT22;41758;51.992;5.890;2024-01-11T03:25:26;0.20;56.30
55828;DHT22;41758;51.992;5.890;2024-01-11T03:27:52;0.20;56.20
55828;DHT22;41758;51.992;5.890;2024-01-11T03:30:17;0.20;56.30
55828;DHT22;41758;51.992;5.890;2024-01-11T03:32:43;0.20;56.30
55828;DHT22;41758;51.992;5.890;2024-01-11T03:35:09;0.10;56.30
55828;DHT22;41758;51.992;5.890;2024-01-11T03:37:35;0.10;56.30
55828;DHT22;41758;51.992;5.890;2024-01-11T03:40:02;0.10;56.40
55828;DHT22;41758;51.992;5.890;2024-01-11T03:42:28;0.10;56.30
55828;DHT22;41758;51.992;5.890;2024-01-11T03:44:54;0.10;56.20
55828;DHT22;41758;51.992;5.890;2024-01-11T03:47:19;0.10;56.30
55828;DHT22;41758;51.992;5.890;2024-01-11T03:49:45;0.10;56.30
55828;DHT22;41758;51.992;5.890;2024-01-11T03:52:11;0.10;56.30
55828;DHT22;41758;51.992;5.890;2024-01-11T03:54:36;0.10;56.30
55828;DHT22;41758;51.992;5.890;2024-01-11T03:57:02;0.10;56.30
55828;DHT22;41758;51.992;5.890;2024-01-11T03:59:28;0.10;56.30
55828;DHT22;41758;51.992;5.890;2024-01-11T04:01:53;0.10;56.40
55828;DHT22;41758;51.992;5.890;2024-01-11T04:04:19;0.10;56.30
55828;DHT22;41758;51.992;5.890;2024-01-11T04:06:45;0.10;56.20
55828;DHT22;41758;51.992;5.890;2024-01-11T04:09:11;0.10;56.20
55828;DHT22;41758;51.992;5.890;2024-01-11T04:11:36;0.10;56.30
55828;DHT22;41758;51.992;5.890;2024-01-11T04:14:02;0.00;56.30
55828;DHT22;41758;51.992;5.890;2024-01-11T04:16:28;0.00;56.30
55828;DHT22;41758;51.992;5.890;2024-01-11T04:18:54;0.00;56.20
55828;DHT22;41758;51.992;5.890;2024-01-11T04:21:23;0.00;56.20
55828;DHT22;41758;51.992;5.890;2024-01-11T04:23:50;0.00;56.20
55828;DHT22;41758;51.992;5.890;2024-01-11T04:26:16;0.00;56.20
55828;DHT22;41758;51.992;5.890;2024-01-11T04:28:43;0.00;56.20
55828;DHT22;41758;51.992;5.890;2024-01-11T04:31:09;0.00;56.10
55828;DHT22;41758;51.992;5.890;2024-01-11T04:33:34;0.00;56.10
55828;DHT22;41758;51.992;5.890;2024-01-11T04:36:00;0.00;56.10
55828;DHT22;41758;51.992;5.890;2024-01-11T04:38:25;-3276.70;56.20
55828;DHT22;41758;51.992;5.890;2024-01-11T04:40:51;-3276.70;56.20
55828;DHT22;41758;51.992;5.890;2024-01-11T04:43:17;-3276.70;56.10
55828;DHT22;41758;51.992;5.890;2024-01-11T04:45:42;-3276.70;56.10
55828;DHT22;41758;51.992;5.890;2024-01-11T04:48:08;-3276.70;56.20
55828;DHT22;41758;51.992;5.890;2024-01-11T04:50:33;-3276.70;56.20
55828;DHT22;41758;51.992;5.890;2024-01-11T04:52:59;-3276.70;56.30
55828;DHT22;41758;51.992;5.890;2024-01-11T04:55:25;-3276.70;56.30
55828;DHT22;41758;51.992;5.890;2024-01-11T04:57:50;-3276.70;56.40
55828;DHT22;41758;51.992;5.890;2024-01-11T05:00:16;-3276.60;56.40
55828;DHT22;41758;51.992;5.890;2024-01-11T05:02:42;-3276.60;56.30
55828;DHT22;41758;51.992;5.890;2024-01-11T05:05:08;-3276.70;56.30
55828;DHT22;41758;51.992;5.890;2024-01-11T05:07:33;-3276.60;56.30
55828;DHT22;41758;51.992;5.890;2024-01-11T05:10:00;-3276.70;56.40
55828;DHT22;41758;51.992;5.890;2024-01-11T05:12:25;-3276.60;56.40
55828;DHT22;41758;51.992;5.890;2024-01-11T05:14:51;-3276.60;56.40
55828;DHT22;41758;51.992;5.890;2024-01-11T05:17:17;-3276.60;56.40
55828;DHT22;41758;51.992;5.890;2024-01-11T05:19:42;-3276.60;56.40
55828;DHT22;41758;51.992;5.890;2024-01-11T05:22:08;-3276.60;56.40
55828;DHT22;41758;51.992;5.890;2024-01-11T05:24:33;-3276.60;56.40
55828;DHT22;41758;51.992;5.890;2024-01-11T05:26:59;-3276.60;56.40
55828;DHT22;41758;51.992;5.890;2024-01-11T05:29:25;-3276.60;56.40
55828;DHT22;41758;51.992;5.890;2024-01-11T05:31:50;-3276.60;56.50
55828;DHT22;41758;51.992;5.890;2024-01-11T05:34:16;-3276.60;56.50
55828;DHT22;41758;51.992;5.890;2024-01-11T05:36:42;-3276.60;56.40
55828;DHT22;41758;51.992;5.890;2024-01-11T05:39:07;-3276.50;56.50
55828;DHT22;41758;51.992;5.890;2024-01-11T05:41:33;-3276.60;56.60
55828;DHT22;41758;51.992;5.890;2024-01-11T05:43:59;-3276.60;56.60
55828;DHT22;41758;51.992;5.890;2024-01-11T05:46:24;-3276.60;56.60
55828;DHT22;41758;51.992;5.890;2024-01-11T05:48:50;-3276.60;56.60
55828;DHT22;41758;51.992;5.890;2024-01-11T05:51:15;-3276.60;56.60
55828;DHT22;41758;51.992;5.890;2024-01-11T05:53:41;-3276.60;56.60
55828;DHT22;41758;51.992;5.890;2024-01-11T05:56:08;-3276.60;56.60
55828;DHT22;41758;51.992;5.890;2024-01-11T05:58:34;-3276.60;56.60
55828;DHT22;41758;51.992;5.890;2024-01-11T06:00:59;-3276.60;56.60
55828;DHT22;41758;51.992;5.890;2024-01-11T06:03:25;-3276.60;56.60
55828;DHT22;41758;51.992;5.890;2024-01-11T06:05:51;-3276.60;56.60
55828;DHT22;41758;51.992;5.890;2024-01-11T06:08:16;-3276.60;56.60
55828;DHT22;41758;51.992;5.890;2024-01-11T06:10:42;-3276.60;56.60
55828;DHT22;41758;51.992;5.890;2024-01-11T06:13:08;-3276.60;56.60
55828;DHT22;41758;51.992;5.890;2024-01-11T06:15:35;-3276.60;56.70
55828;DHT22;41758;51.992;5.890;2024-01-11T06:18:00;-3276.60;56.60
55828;DHT22;41758;51.992;5.890;2024-01-11T06:20:26;-3276.50;56.60
55828;DHT22;41758;51.992;5.890;2024-01-11T06:22:51;-3276.50;56.70
55828;DHT22;41758;51.992;5.890;2024-01-11T06:25:17;-3276.50;56.70
55828;DHT22;41758;51.992;5.890;2024-01-11T06:27:44;-3276.50;56.70
55828;DHT22;41758;51.992;5.890;2024-01-11T06:30:10;-3276.50;56.70
55828;DHT22;41758;51.992;5.890;2024-01-11T06:32:35;-3276.40;56.70
55828;DHT22;41758;51.992;5.890;2024-01-11T06:35:01;-3276.50;56.80
55828;DHT22;41758;51.992;5.890;2024-01-11T06:37:28;-3276.50;56.80
55828;DHT22;41758;51.992;5.890;2024-01-11T06:39:54;-3276.50;56.90
55828;DHT22;41758;51.992;5.890;2024-01-11T06:42:19;-3276.50;56.90
55828;DHT22;41758;51.992;5.890;2024-01-11T06:44:45;-3276.50;56.90
55828;DHT22;41758;51.992;5.890;2024-01-11T06:47:10;-3276.50;56.90
55828;DHT22;41758;51.992;5.890;2024-01-11T06:49:39;-3276.50;56.90
55828;DHT22;41758;51.992;5.890;2024-01-11T06:52:06;-3276.50;56.90
55828;DHT22;41758;51.992;5.890;2024-01-11T06:54:32;-3276.60;56.90
55828;DHT22;41758;51.992;5.890;2024-01-11T06:56:58;-3276.50;56.90
55828;DHT22;41758;51.992;5.890;2024-01-11T06:59:24;-3276.60;56.90
55828;DHT22;41758;51.992;5.890;2024-01-11T07:01:49;-3276.60;56.90
55828;DHT22;41758;51.992;5.890;2024-01-11T07:04:15;-3276.60;56.90
55828;DHT22;41758;51.992;5.890;2024-01-11T07:06:41;-3276.60;56.90
55828;DHT22;41758;51.992;5.890;2024-01-11T07:09:06;-3276.60;56.90
55828;DHT22;41758;51.992;5.890;2024-01-11T07:11:32;-3276.50;56.90
55828;DHT22;41758;51.992;5.890;2024-01-11T07:13:58;-3276.50;56.90
55828;DHT22;41758;51.992;5.890;2024-01-11T07:16:24;-3276.50;56.90
55828;DHT22;41758;51.992;5.890;2024-01-11T07:18:49;-3276.50;56.90
55828;DHT22;41758;51.992;5.890;2024-01-11T07:21:22;-3276.50;57.00
55828;DHT22;41758;51.992;5.890;2024-01-11T07:24:04;-3276.50;57.00
55828;DHT22;41758;51.992;5.890;2024-01-11T07:26:30;-3276.50;57.00
55828;DHT22;41758;51.992;5.890;2024-01-11T07:28:56;-3276.50;57.10
55828;DHT22;41758;51.992;5.890;2024-01-11T07:31:21;-3276.50;57.10
55828;DHT22;41758;51.992;5.890;2024-01-11T07:33:47;-3276.50;57.10
55828;DHT22;41758;51.992;5.890;2024-01-11T07:36:13;-3276.50;57.10
55828;DHT22;41758;51.992;5.890;2024-01-11T07:38:39;-3276.50;57.00
55828;DHT22;41758;51.992;5.890;2024-01-11T07:41:04;-3276.60;57.00
55828;DHT22;41758;51.992;5.890;2024-01-11T07:43:30;-3276.50;57.00
55828;DHT22;41758;51.992;5.890;2024-01-11T07:45:57;-3276.50;57.10
55828;DHT22;41758;51.992;5.890;2024-01-11T07:48:23;-3276.60;57.10
55828;DHT22;41758;51.992;5.890;2024-01-11T07:50:49;-3276.60;57.10
55828;DHT22;41758;51.992;5.890;2024-01-11T07:53:15;-3276.50;57.10
55828;DHT22;41758;51.992;5.890;2024-01-11T07:55:41;-3276.60;57.10
55828;DHT22;41758;51.992;5.890;2024-01-11T07:58:07;-3276.60;57.10
55828;DHT22;41758;51.992;5.890;2024-01-11T08:00:33;-3276.60;57.10
55828;DHT22;41758;51.992;5.890;2024-01-11T08:02:59;-3276.60;57.20
55828;DHT22;41758;51.992;5.890;2024-01-11T08:05:25;-3276.60;57.20
55828;DHT22;41758;51.992;5.890;2024-01-11T08:07:51;-3276.60;57.20
55828;DHT22;41758;51.992;5.890;2024-01-11T08:10:17;-3276.60;57.20
55828;DHT22;41758;51.992;5.890;2024-01-11T08:12:42;-3276.70;57.30
55828;DHT22;41758;51.992;5.890;2024-01-11T08:15:08;-3276.70;57.30
55828;DHT22;41758;51.992;5.890;2024-01-11T08:17:44;-3276.70;57.30
55828;DHT22;41758;51.992;5.890;2024-01-11T08:20:10;-3276.70;57.40
55828;DHT22;41758;51.992;5.890;2024-01-11T08:22:40;0.00;57.40
55828;DHT22;41758;51.992;5.890;2024-01-11T08:25:06;0.00;57.50
55828;DHT22;41758;51.992;5.890;2024-01-11T08:27:32;0.00;57.50
55828;DHT22;41758;51.992;5.890;2024-01-11T08:29:59;0.00;57.50
55828;DHT22;41758;51.992;5.890;2024-01-11T08:32:26;0.00;57.50
55828;DHT22;41758;51.992;5.890;2024-01-11T08:34:52;0.00;57.50
55828;DHT22;41758;51.992;5.890;2024-01-11T08:37:18;0.00;57.50
55828;DHT22;41758;51.992;5.890;2024-01-11T08:39:43;0.10;57.50
55828;DHT22;41758;51.992;5.890;2024-01-11T08:42:12;0.10;57.60
55828;DHT22;41758;51.992;5.890;2024-01-11T08:44:41;0.10;57.60
55828;DHT22;41758;51.992;5.890;2024-01-11T08:47:08;0.20;57.50
55828;DHT22;41758;51.992;5.890;2024-01-11T08:49:39;0.20;57.60
55828;DHT22;41758;51.992;5.890;2024-01-11T08:52:05;0.20;57.60
55828;DHT22;41758;51.992;5.890;2024-01-11T08:54:31;0.30;57.60
55828;DHT22;41758;51.992;5.890;2024-01-11T08:56:58;0.30;57.60
55828;DHT22;41758;51.992;5.890;2024-01-11T08:59:24;0.30;57.70
55828;DHT22;41758;51.992;5.890;2024-01-11T09:01:51;0.30;57.70
55828;DHT22;41758;51.992;5.890;2024-01-11T09:04:18;0.40;57.70
55828;DHT22;41758;51.992;5.890;2024-01-11T09:06:44;0.40;57.70
55828;DHT22;41758;51.992;5.890;2024-01-11T09:09:13;0.40;57.70
55828;DHT22;41758;51.992;5.890;2024-01-11T09:11:42;0.50;57.70
55828;DHT22;41758;51.992;5.890;2024-01-11T09:14:08;0.60;57.80
55828;DHT22;41758;51.992;5.890;2024-01-11T09:16:36;0.60;57.80
55828;DHT22;41758;51.992;5.890;2024-01-11T09:19:02;0.60;57.70
55828;DHT22;41758;51.992;5.890;2024-01-11T09:21:28;0.70;57.80
55828;DHT22;41758;51.992;5.890;2024-01-11T09:23:53;0.80;57.80
55828;DHT22;41758;51.992;5.890;2024-01-11T09:26:19;0.80;57.80
55828;DHT22;41758;51.992;5.890;2024-01-11T09:28:45;0.90;57.80
55828;DHT22;41758;51.992;5.890;2024-01-11T09:31:11;1.00;57.80
55828;DHT22;41758;51.992;5.890;2024-01-11T09:33:37;1.00;57.80
55828;DHT22;41758;51.992;5.890;2024-01-11T09:36:03;1.10;57.70
55828;DHT22;41758;51.992;5.890;2024-01-11T09:38:29;1.10;57.80
55828;DHT22;41758;51.992;5.890;2024-01-11T09:41:11;1.30;57.80
55828;DHT22;41758;51.992;5.890;2024-01-11T09:43:37;1.30;57.70
55828;DHT22;41758;51.992;5.890;2024-01-11T09:46:04;1.30;57.70
55828;DHT22;41758;51.992;5.890;2024-01-11T09:48:34;1.30;57.60
55828;DHT22;41758;51.992;5.890;2024-01-11T09:51:01;1.40;57.60
55828;DHT22;41758;51.992;5.890;2024-01-11T09:53:32;1.50;57.60
55828;DHT22;41758;51.992;5.890;2024-01-11T09:56:01;1.60;57.60
55828;DHT22;41758;51.992;5.890;2024-01-11T09:58:27;1.70;57.60
55828;DHT22;41758;51.992;5.890;2024-01-11T10:00:56;1.70;57.60
55828;DHT22;41758;51.992;5.890;2024-01-11T10:03:25;1.80;57.70
55828;DHT22;41758;51.992;5.890;2024-01-11T10:05:55;1.90;57.60
55828;DHT22;41758;51.992;5.890;2024-01-11T10:08:23;2.00;57.70
55828;DHT22;41758;51.992;5.890;2024-01-11T10:10:49;2.10;57.60
55828;DHT22;41758;51.992;5.890;2024-01-11T10:13:15;2.10;57.70
55828;DHT22;41758;51.992;5.890;2024-01-11T10:15:42;2.30;57.80
55828;DHT22;41758;51.992;5.890;2024-01-11T10:18:08;2.30;57.70
55828;DHT22;41758;51.992;5.890;2024-01-11T10:20:34;2.40;57.60
55828;DHT22;41758;51.992;5.890;2024-01-11T10:22:59;2.50;57.50
55828;DHT22;41758;51.992;5.890;2024-01-11T10:25:26;2.50;57.60
55828;DHT22;41758;51.992;5.890;2024-01-11T10:27:52;2.70;57.60
55828;DHT22;41758;51.992;5.890;2024-01-11T10:30:18;2.80;57.70
55828;DHT22;41758;51.992;5.890;2024-01-11T10:32:46;2.90;57.80
55828;DHT22;41758;51.992;5.890;2024-01-11T10:35:12;3.00;57.70
55828;DHT22;41758;51.992;5.890;2024-01-11T10:37:38;3.10;57.60
55828;DHT22;41758;51.992;5.890;2024-01-11T10:40:09;3.20;57.60
55828;DHT22;41758;51.992;5.890;2024-01-11T10:42:45;3.40;57.60
55828;DHT22;41758;51.992;5.890;2024-01-11T10:45:20;3.60;57.60
55828;DHT22;41758;51.992;5.890;2024-01-11T10:48:01;3.70;57.60
55828;DHT22;41758;51.992;5.890;2024-01-11T10:50:30;3.80;57.40
55828;DHT22;41758;51.992;5.890;2024-01-11T10:53:04;3.90;57.30
55828;DHT22;41758;51.992;5.890;2024-01-11T10:55:34;4.00;57.30
55828;DHT22;41758;51.992;5.890;2024-01-11T10:58:01;4.10;57.30
55828;DHT22;41758;51.992;5.890;2024-01-11T11:00:28;4.20;57.10
55828;DHT22;41758;51.992;5.890;2024-01-11T11:02:55;4.30;57.00
55828;DHT22;41758;51.992;5.890;2024-01-11T11:05:22;4.30;57.20
55828;DHT22;41758;51.992;5.890;2024-01-11T11:07:49;4.40;57.30
55828;DHT22;41758;51.992;5.890;2024-01-11T11:10:18;4.50;57.20
55828;DHT22;41758;51.992;5.890;2024-01-11T11:12:45;4.60;57.20
55828;DHT22;41758;51.992;5.890;2024-01-11T11:15:13;4.70;57.10
55828;DHT22;41758;51.992;5.890;2024-01-11T11:17:41;4.70;57.10
55828;DHT22;41758;51.992;5.890;2024-01-11T11:20:08;4.80;57.00
55828;DHT22;41758;51.992;5.890;2024-01-11T11:22:34;4.80;57.00
55828;DHT22;41758;51.992;5.890;2024-01-11T11:25:11;4.80;56.90
55828;DHT22;41758;51.992;5.890;2024-01-11T11:27:48;4.90;57.10
55828;DHT22;41758;51.992;5.890;2024-01-11T11:30:14;4.90;57.00
55828;DHT22;41758;51.992;5.890;2024-01-11T11:32:44;5.00;57.10
55828;DHT22;41758;51.992;5.890;2024-01-11T11:35:10;5.00;57.10
55828;DHT22;41758;51.992;5.890;2024-01-11T11:37:39;5.10;57.20
55828;DHT22;41758;51.992;5.890;2024-01-11T11:40:11;5.20;57.30
55828;DHT22;41758;51.992;5.890;2024-01-11T11:42:36;5.20;57.30
55828;DHT22;41758;51.992;5.890;2024-01-11T11:45:02;5.30;57.30
55828;DHT22;41758;51.992;5.890;2024-01-11T11:47:35;5.30;57.30
55828;DHT22;41758;51.992;5.890;2024-01-11T11:50:10;5.40;57.20
55828;DHT22;41758;51.992;5.890;2024-01-11T11:52:40;5.40;57.20
55828;DHT22;41758;51.992;5.890;2024-01-11T11:55:08;5.50;57.30
55828;DHT22;41758;51.992;5.890;2024-01-11T11:57:35;5.50;57.30
55828;DHT22;41758;51.992;5.890;2024-01-11T12:00:01;5.60;57.30
55828;DHT22;41758;51.992;5.890;2024-01-11T12:02:37;5.60;57.30
55828;DHT22;41758;51.992;5.890;2024-01-11T12:05:03;5.60;57.30
55828;DHT22;41758;51.992;5.890;2024-01-11T12:07:29;5.70;57.40
55828;DHT22;41758;51.992;5.890;2024-01-11T12:09:55;5.80;57.40
55828;DHT22;41758;51.992;5.890;2024-01-11T12:12:21;5.80;57.40
55828;DHT22;41758;51.992;5.890;2024-01-11T12:14:49;5.80;57.40
55828;DHT22;41758;51.992;5.890;2024-01-11T12:17:16;5.90;57.40
55828;DHT22;41758;51.992;5.890;2024-01-11T12:19:41;6.00;57.40
55828;DHT22;41758;51.992;5.890;2024-01-11T12:22:07;6.00;57.50
55828;DHT22;41758;51.992;5.890;2024-01-11T12:24:33;6.10;57.50
55828;DHT22;41758;51.992;5.890;2024-01-11T12:27:02;6.10;57.40
55828;DHT22;41758;51.992;5.890;2024-01-11T12:29:29;6.10;57.40
55828;DHT22;41758;51.992;5.890;2024-01-11T12:31:57;6.10;57.40
55828;DHT22;41758;51.992;5.890;2024-01-11T12:34:24;6.20;57.40
55828;DHT22;41758;51.992;5.890;2024-01-11T12:36:52;6.20;57.50
55828;DHT22;41758;51.992;5.890;2024-01-11T12:39:19;6.20;57.50
55828;DHT22;41758;51.992;5.890;2024-01-11T12:41:44;6.30;57.50
55828;DHT22;41758;51.992;5.890;2024-01-11T12:44:10;6.30;57.50
55828;DHT22;41758;51.992;5.890;2024-01-11T12:46:35;6.30;57.50
55828;DHT22;41758;51.992;5.890;2024-01-11T12:49:02;6.30;57.40
55828;DHT22;41758;51.992;5.890;2024-01-11T12:51:27;6.40;57.50
55828;DHT22;41758;51.992;5.890;2024-01-11T12:53:53;6.40;57.50
55828;DHT22;41758;51.992;5.890;2024-01-11T12:56:19;6.50;57.60
55828;DHT22;41758;51.992;5.890;2024-01-11T12:58:46;6.50;57.60
55828;DHT22;41758;51.992;5.890;2024-01-11T13:01:12;6.50;57.60
55828;DHT22;41758;51.992;5.890;2024-01-11T13:03:43;6.50;57.60
55828;DHT22;41758;51.992;5.890;2024-01-11T13:06:09;6.60;57.60
55828;DHT22;41758;51.992;5.890;2024-01-11T13:08:37;6.60;57.70
55828;DHT22;41758;51.992;5.890;2024-01-11T13:11:06;6.70;57.60
55828;DHT22;41758;51.992;5.890;2024-01-11T13:13:33;6.70;57.60
55828;DHT22;41758;51.992;5.890;2024-01-11T13:16:00;6.70;57.60
55828;DHT22;41758;51.992;5.890;2024-01-11T13:18:25;6.80;57.70
55828;DHT22;41758;51.992;5.890;2024-01-11T13:20:51;6.80;57.70
55828;DHT22;41758;51.992;5.890;2024-01-11T13:23:18;6.80;57.70
55828;DHT22;41758;51.992;5.890;2024-01-11T13:25:48;6.80;57.60
55828;DHT22;41758;51.992;5.890;2024-01-11T13:28:15;6.80;57.60
55828;DHT22;41758;51.992;5.890;2024-01-11T13:30:42;6.80;57.60
55828;DHT22;41758;51.992;5.890;2024-01-11T13:33:09;6.80;57.60
55828;DHT22;41758;51.992;5.890;2024-01-11T13:35:39;6.80;57.70
55828;DHT22;41758;51.992;5.890;2024-01-11T13:38:05;6.80;57.60
55828;DHT22;41758;51.992;5.890;2024-01-11T13:40:32;6.80;57.70
55828;DHT22;41758;51.992;5.890;2024-01-11T13:42:58;6.80;57.80
55828;DHT22;41758;51.992;5.890;2024-01-11T13:45:26;6.80;57.80
55828;DHT22;41758;51.992;5.890;2024-01-11T13:47:52;6.90;57.90
55828;DHT22;41758;51.992;5.890;2024-01-11T13:50:22;6.90;58.00
55828;DHT22;41758;51.992;5.890;2024-01-11T13:52:49;6.90;57.80
55828;DHT22;41758;51.992;5.890;2024-01-11T13:55:16;6.90;57.30
55828;DHT22;41758;51.992;5.890;2024-01-11T13:57:43;6.90;57.50
55828;DHT22;41758;51.992;5.890;2024-01-11T14:00:09;6.80;57.70
55828;DHT22;41758;51.992;5.890;2024-01-11T14:02:36;6.90;57.80
55828;DHT22;41758;51.992;5.890;2024-01-11T14:05:03;6.80;57.50
55828;DHT22;41758;51.992;5.890;2024-01-11T14:07:29;6.80;57.60
55828;DHT22;41758;51.992;5.890;2024-01-11T14:09:56;6.70;57.40
55828;DHT22;41758;51.992;5.890;2024-01-11T14:12:21;6.70;57.30
55828;DHT22;41758;51.992;5.890;2024-01-11T14:14:47;6.60;57.40
55828;DHT22;41758;51.992;5.890;2024-01-11T14:17:13;6.50;57.60
55828;DHT22;41758;51.992;5.890;2024-01-11T14:19:38;6.50;57.80
55828;DHT22;41758;51.992;5.890;2024-01-11T14:22:04;6.40;57.90
55828;DHT22;41758;51.992;5.890;2024-01-11T14:24:30;6.50;58.10
55828;DHT22;41758;51.992;5.890;2024-01-11T14:26:56;6.50;58.10
55828;DHT22;41758;51.992;5.890;2024-01-11T14:29:21;6.40;58.00
55828;DHT22;41758;51.992;5.890;2024-01-11T14:31:47;6.40;58.10
55828;DHT22;41758;51.992;5.890;2024-01-11T14:34:13;6.40;58.10
55828;DHT22;41758;51.992;5.890;2024-01-11T14:36:39;6.40;58.10
55828;DHT22;41758;51.992;5.890;2024-01-11T14:39:04;6.30;58.10
55828;DHT22;41758;51.992;5.890;2024-01-11T14:41:31;6.30;58.30
55828;DHT22;41758;51.992;5.890;2024-01-11T14:43:57;6.30;58.40
55828;DHT22;41758;51.992;5.890;2024-01-11T14:46:25;6.20;58.50
55828;DHT22;41758;51.992;5.890;2024-01-11T14:48:51;6.20;58.70
55828;DHT22;41758;51.992;5.890;2024-01-11T14:51:17;6.20;58.70
55828;DHT22;41758;51.992;5.890;2024-01-11T14:53:42;6.10;58.70
55828;DHT22;41758;51.992;5.890;2024-01-11T14:56:08;6.10;58.80
55828;DHT22;41758;51.992;5.890;2024-01-11T14:58:34;6.10;58.90
55828;DHT22;41758;51.992;5.890;2024-01-11T15:01:00;6.10;59.10
55828;DHT22;41758;51.992;5.890;2024-01-11T15:03:26;6.10;59.10
55828;DHT22;41758;51.992;5.890;2024-01-11T15:05:55;6.10;59.00
55828;DHT22;41758;51.992;5.890;2024-01-11T15:08:21;6.10;59.00
55828;DHT22;41758;51.992;5.890;2024-01-11T15:10:47;6.10;59.10
55828;DHT22;41758;51.992;5.890;2024-01-11T15:13:13;6.00;59.30
55828;DHT22;41758;51.992;5.890;2024-01-11T15:15:39;6.00;59.30
55828;DHT22;41758;51.992;5.890;2024-01-11T15:18:05;6.00;59.50
55828;DHT22;41758;51.992;5.890;2024-01-11T15:20:30;6.00;59.60
55828;DHT22;41758;51.992;5.890;2024-01-11T15:22:56;5.90;59.50
55828;DHT22;41758;51.992;5.890;2024-01-11T15:25:22;5.90;59.60
55828;DHT22;41758;51.992;5.890;2024-01-11T15:27:49;5.90;59.70
55828;DHT22;41758;51.992;5.890;2024-01-11T15:30:15;5.90;59.80